createdAt,value
2018-10-18T00:00:04.439Z,9.60
2018-10-18T00:00:39.677Z,9.60
2018-10-18T00:01:14.056Z,9.60
2018-10-18T00:01:48.792Z,9.60
2018-10-18T00:02:23.067Z,9.60
2018-10-18T00:02:57.627Z,9.60
2018-10-18T00:03:31.786Z,9.60
2018-10-18T00:04:06.022Z,9.60
2018-10-18T00:04:39.974Z,9.60
2018-10-18T00:05:15.485Z,9.60
2018-10-18T00:05:50.306Z,9.60
2018-10-18T00:06:25.351Z,9.50
2018-10-18T00:07:01.489Z,9.60
2018-10-18T00:07:37.234Z,9.50
2018-10-18T00:08:11.962Z,9.50
2018-10-18T00:08:48.122Z,9.50
2018-10-18T00:09:22.608Z,9.50
2018-10-18T00:09:58.341Z,9.50
2018-10-18T00:10:32.950Z,9.50
2018-10-18T00:11:09.408Z,9.50
2018-10-18T00:11:44.890Z,9.50
2018-10-18T00:12:19.649Z,9.50
2018-10-18T00:12:53.910Z,9.50
2018-10-18T00:13:27.954Z,9.50
2018-10-18T00:14:02.045Z,9.50
2018-10-18T00:14:35.919Z,9.50
2018-10-18T00:15:10.538Z,9.50
2018-10-18T00:15:46.032Z,9.50
2018-10-18T00:16:20.824Z,9.50
2018-10-18T00:16:55.278Z,9.50
2018-10-18T00:17:35.746Z,9.50
2018-10-18T00:18:10.355Z,9.50
2018-10-18T00:18:44.816Z,9.50
2018-10-18T00:19:20.020Z,9.50
2018-10-18T00:19:54.008Z,9.50
2018-10-18T00:20:32.664Z,9.50
2018-10-18T00:21:07.631Z,9.50
2018-10-18T00:21:42.617Z,9.50
2018-10-18T00:22:17.650Z,9.40
2018-10-18T00:22:51.892Z,9.40
2018-10-18T00:23:26.388Z,9.40
2018-10-18T00:24:00.355Z,9.40
2018-10-18T00:24:34.782Z,9.40
2018-10-18T00:25:08.906Z,9.40
2018-10-18T00:25:43.052Z,9.40
2018-10-18T00:26:17.098Z,9.40
2018-10-18T00:26:51.164Z,9.40
2018-10-18T00:27:25.288Z,9.40
2018-10-18T00:27:59.484Z,9.40
2018-10-18T00:28:33.654Z,9.40
2018-10-18T00:29:08.209Z,9.40
2018-10-18T00:29:42.398Z,9.40
2018-10-18T00:30:16.578Z,9.40
2018-10-18T00:30:50.872Z,9.40
2018-10-18T00:31:25.081Z,9.40
2018-10-18T00:31:59.070Z,9.40
2018-10-18T00:32:33.204Z,9.40
2018-10-18T00:33:07.279Z,9.40
2018-10-18T00:33:41.508Z,9.40
2018-10-18T00:34:16.014Z,9.30
2018-10-18T00:34:49.976Z,9.40
2018-10-18T00:35:24.202Z,9.40
2018-10-18T00:36:00.005Z,9.40
2018-10-18T00:36:34.154Z,9.40
2018-10-18T00:37:08.390Z,9.40
2018-10-18T00:37:42.834Z,9.30
2018-10-18T00:38:16.906Z,9.30
2018-10-18T00:38:51.624Z,9.30
2018-10-18T00:39:25.723Z,9.30
2018-10-18T00:39:59.998Z,9.30
2018-10-18T00:40:33.914Z,9.30
2018-10-18T00:41:08.225Z,9.30
2018-10-18T00:41:42.787Z,9.30
2018-10-18T00:42:17.125Z,9.30
2018-10-18T00:42:51.449Z,9.30
2018-10-18T00:43:26.626Z,9.30
2018-10-18T00:44:01.048Z,9.30
2018-10-18T00:44:35.304Z,9.30
2018-10-18T00:45:10.601Z,9.30
2018-10-18T00:45:45.296Z,9.30
2018-10-18T00:46:19.767Z,9.30
2018-10-18T00:46:54.046Z,9.30
2018-10-18T00:47:27.964Z,9.30
2018-10-18T00:48:02.400Z,9.20
2018-10-18T00:48:37.002Z,9.20
2018-10-18T00:49:11.300Z,9.20
2018-10-18T00:49:46.707Z,9.20
2018-10-18T00:50:21.189Z,9.20
2018-10-18T00:50:55.442Z,9.20
2018-10-18T00:51:29.528Z,9.20
2018-10-18T00:52:03.444Z,9.20
2018-10-18T00:52:38.156Z,9.20
2018-10-18T00:53:12.550Z,9.20
2018-10-18T00:53:46.766Z,9.20
2018-10-18T00:54:20.988Z,9.20
2018-10-18T00:54:55.248Z,9.20
2018-10-18T00:55:29.654Z,9.20
2018-10-18T00:56:04.248Z,9.20
2018-10-18T00:56:39.173Z,9.20
2018-10-18T00:57:13.616Z,9.20
2018-10-18T00:57:47.510Z,9.20
2018-10-18T00:58:21.412Z,9.20
2018-10-18T00:58:55.598Z,9.20
2018-10-18T00:59:29.530Z,9.20
2018-10-18T01:00:03.922Z,9.20
2018-10-18T01:00:37.983Z,9.20
2018-10-18T01:01:12.700Z,9.20
2018-10-18T01:01:46.948Z,9.20
2018-10-18T01:02:21.202Z,9.20
2018-10-18T01:02:55.363Z,9.20
2018-10-18T01:03:29.502Z,9.20
2018-10-18T01:04:03.948Z,9.10
2018-10-18T01:04:38.147Z,9.10
2018-10-18T01:05:12.828Z,9.10
2018-10-18T01:05:47.076Z,9.10
2018-10-18T01:06:21.329Z,9.10
2018-10-18T01:06:56.192Z,9.10
2018-10-18T01:07:31.020Z,9.10
2018-10-18T01:08:05.473Z,9.10
2018-10-18T01:08:39.757Z,9.10
2018-10-18T01:09:14.029Z,9.20
2018-10-18T01:09:48.627Z,9.10
2018-10-18T01:10:23.230Z,9.20
2018-10-18T01:10:57.544Z,9.10
2018-10-18T01:11:31.423Z,9.10
2018-10-18T01:12:05.583Z,9.10
2018-10-18T01:12:39.959Z,9.10
2018-10-18T01:13:14.327Z,9.10
2018-10-18T01:13:48.542Z,9.10
2018-10-18T01:14:23.259Z,9.10
2018-10-18T01:14:57.876Z,9.10
2018-10-18T01:15:31.860Z,9.10
2018-10-18T01:16:06.205Z,9.10
2018-10-18T01:16:40.708Z,9.10
2018-10-18T01:17:14.616Z,9.10
2018-10-18T01:17:48.537Z,9.10
2018-10-18T01:18:22.603Z,9.10
2018-10-18T01:18:56.544Z,9.10
2018-10-18T01:19:31.884Z,9.10
2018-10-18T01:20:06.391Z,9.10
2018-10-18T01:20:40.922Z,9.10
2018-10-18T01:21:15.166Z,9.10
2018-10-18T01:21:49.518Z,9.10
2018-10-18T01:22:23.384Z,9.10
2018-10-18T01:22:57.366Z,9.10
2018-10-18T01:24:22.328Z,9.10
2018-10-18T01:24:56.458Z,9.00
2018-10-18T01:25:30.581Z,9.00
2018-10-18T01:26:04.784Z,9.00
2018-10-18T01:26:39.050Z,9.10
2018-10-18T01:27:13.491Z,9.00
2018-10-18T01:27:47.310Z,9.00
2018-10-18T01:28:21.472Z,9.10
2018-10-18T01:28:55.636Z,9.00
2018-10-18T01:29:29.765Z,9.00
2018-10-18T01:30:04.828Z,9.00
2018-10-18T01:30:39.421Z,9.00
2018-10-18T01:31:13.261Z,9.00
2018-10-18T01:31:47.410Z,9.00
2018-10-18T01:32:21.548Z,9.00
2018-10-18T01:32:55.637Z,9.00
2018-10-18T01:33:29.730Z,9.00
2018-10-18T01:34:03.808Z,9.00
2018-10-18T01:34:38.238Z,9.10
2018-10-18T01:35:12.345Z,9.00
2018-10-18T01:35:46.502Z,9.10
2018-10-18T01:36:20.331Z,9.00
2018-10-18T01:36:54.269Z,9.00
2018-10-18T01:37:28.367Z,9.00
2018-10-18T01:38:02.519Z,9.00
2018-10-18T01:38:36.774Z,9.00
2018-10-18T01:39:11.400Z,9.00
2018-10-18T01:39:45.318Z,9.00
2018-10-18T01:40:19.440Z,9.00
2018-10-18T01:40:53.668Z,9.00
2018-10-18T01:41:28.933Z,9.00
2018-10-18T01:42:03.053Z,9.00
2018-10-18T01:42:37.353Z,9.00
2018-10-18T01:43:11.463Z,9.00
2018-10-18T01:43:45.679Z,9.00
2018-10-18T01:44:20.451Z,9.00
2018-10-18T01:44:54.860Z,9.00
2018-10-18T01:45:29.014Z,9.00
2018-10-18T01:46:04.152Z,9.00
2018-10-18T01:46:38.873Z,9.00
2018-10-18T01:47:13.318Z,9.00
2018-10-18T01:47:47.668Z,9.00
2018-10-18T01:48:21.748Z,9.00
2018-10-18T01:48:55.860Z,9.00
2018-10-18T01:49:29.952Z,9.00
2018-10-18T01:50:05.401Z,9.00
2018-10-18T01:50:39.679Z,9.00
2018-10-18T01:51:13.496Z,9.00
2018-10-18T01:51:47.921Z,9.00
2018-10-18T01:52:23.376Z,9.00
2018-10-18T01:52:57.170Z,9.00
2018-10-18T01:53:31.280Z,9.00
2018-10-18T01:54:05.354Z,9.00
2018-10-18T01:54:39.272Z,9.00
2018-10-18T01:55:14.189Z,9.00
2018-10-18T01:55:48.037Z,9.00
2018-10-18T01:56:22.124Z,8.90
2018-10-18T01:56:55.959Z,8.90
2018-10-18T01:57:30.041Z,8.90
2018-10-18T01:58:04.616Z,8.90
2018-10-18T01:58:38.532Z,8.90
2018-10-18T01:59:12.989Z,8.90
2018-10-18T01:59:47.254Z,8.90
2018-10-18T02:00:22.061Z,8.90
2018-10-18T02:00:56.374Z,8.90
2018-10-18T02:01:31.125Z,8.90
2018-10-18T02:02:05.649Z,8.90
2018-10-18T02:02:40.274Z,8.90
2018-10-18T02:03:14.411Z,8.90
2018-10-18T02:03:49.123Z,8.90
2018-10-18T02:04:23.782Z,8.90
2018-10-18T02:04:58.385Z,8.90
2018-10-18T02:05:32.924Z,8.90
2018-10-18T02:06:07.814Z,8.90
2018-10-18T02:06:42.373Z,8.80
2018-10-18T02:07:16.208Z,8.80
2018-10-18T02:07:50.388Z,8.80
2018-10-18T02:08:24.809Z,8.80
2018-10-18T02:08:59.637Z,8.80
2018-10-18T02:09:34.375Z,8.80
2018-10-18T02:10:08.539Z,8.80
2018-10-18T02:10:42.616Z,8.80
2018-10-18T02:11:17.768Z,8.80
2018-10-18T02:11:51.595Z,8.80
2018-10-18T02:12:25.929Z,8.70
2018-10-18T02:14:03.484Z,8.80
2018-10-18T02:14:37.584Z,8.70
2018-10-18T02:15:11.668Z,8.70
2018-10-18T02:15:46.092Z,8.70
2018-10-18T02:16:20.227Z,8.70
2018-10-18T02:16:54.292Z,8.70
2018-10-18T02:17:29.557Z,8.70
2018-10-18T02:18:03.688Z,8.70
2018-10-18T02:18:38.293Z,8.60
2018-10-18T02:19:12.420Z,8.70
2018-10-18T02:19:47.039Z,8.60
2018-10-18T02:20:21.182Z,8.60
2018-10-18T02:20:55.264Z,8.60
2018-10-18T02:21:29.368Z,8.60
2018-10-18T02:22:03.437Z,8.60
2018-10-18T02:22:37.605Z,8.60
2018-10-18T02:23:11.412Z,8.60
2018-10-18T02:23:45.525Z,8.60
2018-10-18T02:24:19.590Z,8.60
2018-10-18T02:24:53.675Z,8.60
2018-10-18T02:25:27.694Z,8.60
2018-10-18T02:26:01.787Z,8.60
2018-10-18T02:26:36.259Z,8.50
2018-10-18T02:27:10.322Z,8.50
2018-10-18T02:27:44.405Z,8.50
2018-10-18T02:28:18.968Z,8.50
2018-10-18T02:28:53.161Z,8.60
2018-10-18T02:29:27.216Z,8.50
2018-10-18T02:30:01.542Z,8.50
2018-10-18T02:30:36.149Z,8.50
2018-10-18T02:31:10.248Z,8.50
2018-10-18T02:31:44.359Z,8.50
2018-10-18T02:32:18.824Z,8.50
2018-10-18T02:32:53.231Z,8.50
2018-10-18T02:33:27.298Z,8.50
2018-10-18T02:34:01.243Z,8.50
2018-10-18T02:34:35.325Z,8.50
2018-10-18T02:35:10.221Z,8.50
2018-10-18T02:35:44.631Z,8.50
2018-10-18T02:36:19.140Z,8.50
2018-10-18T02:36:53.096Z,8.50
2018-10-18T02:37:27.441Z,8.50
2018-10-18T02:38:01.581Z,8.50
2018-10-18T02:38:35.447Z,8.50
2018-10-18T02:39:10.044Z,8.50
2018-10-18T02:39:43.856Z,8.50
2018-10-18T02:40:18.297Z,8.50
2018-10-18T02:40:52.742Z,8.50
2018-10-18T02:41:26.852Z,8.50
2018-10-18T02:42:01.000Z,8.50
2018-10-18T02:42:35.277Z,8.50
2018-10-18T02:43:09.349Z,8.50
2018-10-18T02:43:43.793Z,8.40
2018-10-18T02:44:18.367Z,8.40
2018-10-18T02:44:52.475Z,8.40
2018-10-18T02:45:26.563Z,8.40
2018-10-18T02:46:00.665Z,8.40
2018-10-18T02:46:34.503Z,8.40
2018-10-18T02:47:08.969Z,8.40
2018-10-18T02:47:43.072Z,8.50
2018-10-18T02:48:17.261Z,8.40
2018-10-18T02:48:51.453Z,8.40
2018-10-18T02:49:26.125Z,8.40
2018-10-18T02:50:00.216Z,8.40
2018-10-18T02:50:34.653Z,8.40
2018-10-18T02:51:08.761Z,8.40
2018-10-18T02:51:42.853Z,8.40
2018-10-18T02:52:16.981Z,8.40
2018-10-18T02:52:51.390Z,8.40
2018-10-18T02:53:25.801Z,8.40
2018-10-18T02:53:59.901Z,8.40
2018-10-18T02:54:34.617Z,8.40
2018-10-18T02:55:09.377Z,8.40
2018-10-18T02:55:43.491Z,8.40
2018-10-18T02:56:17.680Z,8.40
2018-10-18T02:56:52.124Z,8.40
2018-10-18T02:57:26.249Z,8.40
2018-10-18T02:58:00.869Z,8.40
2018-10-18T02:58:34.935Z,8.40
2018-10-18T02:59:09.048Z,8.40
2018-10-18T02:59:43.151Z,8.40
2018-10-18T03:00:17.298Z,8.40
2018-10-18T03:00:51.565Z,8.40
2018-10-18T03:01:25.417Z,8.40
2018-10-18T03:01:59.242Z,8.40
2018-10-18T03:02:33.347Z,8.40
2018-10-18T03:03:07.445Z,8.40
2018-10-18T03:03:41.883Z,8.40
2018-10-18T03:04:16.229Z,8.40
2018-10-18T03:04:50.325Z,8.40
2018-10-18T03:05:24.449Z,8.40
2018-10-18T03:05:59.207Z,8.40
2018-10-18T03:06:33.461Z,8.40
2018-10-18T03:07:08.199Z,8.40
2018-10-18T03:07:42.309Z,8.40
2018-10-18T03:08:16.418Z,8.40
2018-10-18T03:08:50.660Z,8.40
2018-10-18T03:09:25.083Z,8.40
2018-10-18T03:09:59.185Z,8.40
2018-10-18T03:10:33.357Z,8.40
2018-10-18T03:11:07.465Z,8.40
2018-10-18T03:11:41.949Z,8.40
2018-10-18T03:12:16.122Z,8.40
2018-10-18T03:12:50.375Z,8.40
2018-10-18T03:13:24.544Z,8.40
2018-10-18T03:13:58.633Z,8.40
2018-10-18T03:14:32.712Z,8.40
2018-10-18T03:15:07.221Z,8.40
2018-10-18T03:15:41.041Z,8.30
2018-10-18T03:16:15.532Z,8.30
2018-10-18T03:16:49.754Z,8.30
2018-10-18T03:17:24.193Z,8.30
2018-10-18T03:17:58.344Z,8.30
2018-10-18T03:18:32.653Z,8.30
2018-10-18T03:19:07.069Z,8.30
2018-10-18T03:19:41.168Z,8.30
2018-10-18T03:20:15.269Z,8.30
2018-10-18T03:20:49.773Z,8.30
2018-10-18T03:21:23.598Z,8.30
2018-10-18T03:21:57.713Z,8.30
2018-10-18T03:22:31.809Z,8.30
2018-10-18T03:23:06.493Z,8.30
2018-10-18T03:23:40.933Z,8.30
2018-10-18T03:24:15.571Z,8.30
2018-10-18T03:24:49.707Z,8.30
2018-10-18T03:25:24.634Z,8.30
2018-10-18T03:25:59.233Z,8.30
2018-10-18T03:26:33.300Z,8.30
2018-10-18T03:27:07.593Z,8.30
2018-10-18T03:27:42.009Z,8.30
2018-10-18T03:28:16.140Z,8.20
2018-10-18T03:28:50.236Z,8.30
2018-10-18T03:29:24.554Z,8.30
2018-10-18T03:29:58.730Z,8.30
2018-10-18T03:30:32.987Z,8.20
2018-10-18T03:31:07.152Z,8.20
2018-10-18T03:31:41.246Z,8.20
2018-10-18T03:32:15.359Z,8.20
2018-10-18T03:32:49.470Z,8.20
2018-10-18T03:33:23.610Z,8.20
2018-10-18T03:33:58.088Z,8.20
2018-10-18T03:34:32.536Z,8.20
2018-10-18T03:35:07.281Z,8.20
2018-10-18T03:35:41.388Z,8.20
2018-10-18T03:36:16.271Z,8.20
2018-10-18T03:36:50.489Z,8.20
2018-10-18T03:37:24.603Z,8.20
2018-10-18T03:37:58.706Z,8.20
2018-10-18T03:38:33.177Z,8.20
2018-10-18T03:39:09.568Z,8.20
2018-10-18T03:39:43.667Z,8.20
2018-10-18T03:40:17.826Z,8.20
2018-10-18T03:40:51.890Z,8.20
2018-10-18T03:41:26.347Z,8.20
2018-10-18T03:42:00.624Z,8.20
2018-10-18T03:42:34.916Z,8.20
2018-10-18T03:43:09.038Z,8.20
2018-10-18T03:43:43.145Z,8.20
2018-10-18T03:44:17.221Z,8.20
2018-10-18T03:44:51.344Z,8.20
2018-10-18T03:45:26.129Z,8.20
2018-10-18T03:46:00.238Z,8.20
2018-10-18T03:46:34.494Z,8.20
2018-10-18T03:47:09.196Z,8.20
2018-10-18T03:47:43.277Z,8.20
2018-10-18T03:48:17.825Z,8.20
2018-10-18T03:48:52.047Z,8.20
2018-10-18T03:49:26.462Z,8.20
2018-10-18T03:50:00.549Z,8.20
2018-10-18T03:50:34.622Z,8.20
2018-10-18T03:51:08.738Z,8.20
2018-10-18T03:51:43.162Z,8.20
2018-10-18T03:52:17.271Z,8.20
2018-10-18T03:52:51.372Z,8.20
2018-10-18T03:53:25.465Z,8.20
2018-10-18T03:53:59.604Z,8.10
2018-10-18T03:54:34.202Z,8.20
2018-10-18T03:55:08.288Z,8.10
2018-10-18T03:55:42.693Z,8.10
2018-10-18T03:56:16.785Z,8.10
2018-10-18T03:56:50.865Z,8.10
2018-10-18T03:57:25.320Z,8.10
2018-10-18T03:57:59.449Z,8.10
2018-10-18T03:58:33.547Z,8.20
2018-10-18T03:59:08.412Z,8.10
2018-10-18T03:59:42.591Z,8.10
2018-10-18T04:00:16.979Z,8.10
2018-10-18T04:00:51.146Z,8.10
2018-10-18T04:01:25.618Z,8.10
2018-10-18T04:01:59.709Z,8.10
2018-10-18T04:02:34.116Z,8.10
2018-10-18T04:03:08.566Z,8.10
2018-10-18T04:03:43.066Z,8.10
2018-10-18T04:04:17.584Z,8.10
2018-10-18T04:04:51.682Z,8.10
2018-10-18T04:05:25.778Z,8.10
2018-10-18T04:05:59.895Z,8.10
2018-10-18T04:06:34.194Z,8.10
2018-10-18T04:07:08.746Z,8.10
2018-10-18T04:07:42.826Z,8.10
2018-10-18T04:08:16.938Z,8.10
2018-10-18T04:08:51.025Z,8.10
2018-10-18T04:09:25.478Z,8.10
2018-10-18T04:09:59.589Z,8.10
2018-10-18T04:10:33.663Z,8.10
2018-10-18T04:11:08.074Z,8.10
2018-10-18T04:11:42.209Z,8.10
2018-10-18T04:12:16.764Z,8.10
2018-10-18T04:12:51.462Z,8.10
2018-10-18T04:13:25.562Z,8.10
2018-10-18T04:13:59.696Z,8.10
2018-10-18T04:14:33.800Z,8.10
2018-10-18T04:15:08.066Z,8.10
2018-10-18T04:15:42.153Z,8.10
2018-10-18T04:16:16.571Z,8.10
2018-10-18T04:16:50.674Z,8.10
2018-10-18T04:17:24.784Z,8.10
2018-10-18T04:17:59.341Z,8.10
2018-10-18T04:18:33.661Z,8.10
2018-10-18T04:19:08.172Z,8.10
2018-10-18T04:19:42.294Z,8.10
2018-10-18T04:20:16.393Z,8.10
2018-10-18T04:20:50.498Z,8.10
2018-10-18T04:21:24.906Z,8.10
2018-10-18T04:21:59.326Z,8.10
2018-10-18T04:22:33.410Z,8.10
2018-10-18T04:23:07.514Z,8.10
2018-10-18T04:23:41.612Z,8.10
2018-10-18T04:24:16.086Z,8.10
2018-10-18T04:24:50.380Z,8.10
2018-10-18T04:25:24.469Z,8.10
2018-10-18T04:25:59.738Z,8.10
2018-10-18T04:26:34.497Z,8.10
2018-10-18T04:27:08.814Z,8.10
2018-10-18T04:27:42.893Z,8.10
2018-10-18T04:28:16.993Z,8.00
2018-10-18T04:28:51.082Z,8.00
2018-10-18T04:29:25.174Z,8.00
2018-10-18T04:29:59.314Z,8.00
2018-10-18T04:30:33.578Z,8.00
2018-10-18T04:31:07.665Z,8.00
2018-10-18T04:31:41.748Z,8.00
2018-10-18T04:32:16.165Z,8.00
2018-10-18T04:32:50.257Z,8.00
2018-10-18T04:33:24.465Z,8.00
2018-10-18T04:33:58.581Z,8.00
2018-10-18T04:34:36.370Z,8.00
2018-10-18T04:35:10.478Z,8.00
2018-10-18T04:35:44.561Z,8.00
2018-10-18T04:36:18.821Z,8.00
2018-10-18T04:36:53.005Z,8.00
2018-10-18T04:37:27.481Z,8.00
2018-10-18T04:38:01.736Z,8.00
2018-10-18T04:38:35.848Z,8.00
2018-10-18T04:39:11.708Z,8.00
2018-10-18T04:39:45.884Z,8.00
2018-10-18T04:40:20.666Z,8.00
2018-10-18T04:40:54.785Z,8.00
2018-10-18T04:41:29.631Z,8.00
2018-10-18T04:42:03.799Z,8.00
2018-10-18T04:42:38.784Z,8.00
2018-10-18T04:43:12.897Z,8.00
2018-10-18T04:43:47.019Z,7.90
2018-10-18T04:44:21.098Z,7.90
2018-10-18T04:44:55.208Z,7.90
2018-10-18T04:45:29.643Z,7.90
2018-10-18T04:46:04.417Z,7.90
2018-10-18T04:46:38.683Z,7.90
2018-10-18T04:47:13.151Z,7.90
2018-10-18T04:47:47.569Z,7.90
2018-10-18T04:48:21.887Z,7.90
2018-10-18T04:48:56.223Z,7.90
2018-10-18T04:49:30.426Z,7.90
2018-10-18T04:50:04.985Z,7.90
2018-10-18T04:50:39.569Z,7.90
2018-10-18T04:51:13.699Z,7.90
2018-10-18T04:51:47.826Z,7.90
2018-10-18T04:52:21.949Z,7.90
2018-10-18T04:53:02.914Z,7.90
2018-10-18T04:53:37.006Z,7.90
2018-10-18T04:54:11.112Z,7.90
2018-10-18T04:54:45.580Z,7.90
2018-10-18T04:55:19.692Z,7.90
2018-10-18T04:55:53.837Z,7.90
2018-10-18T04:56:28.422Z,7.90
2018-10-18T04:57:02.924Z,7.90
2018-10-18T04:57:37.037Z,7.90
2018-10-18T04:58:11.123Z,7.90
2018-10-18T04:58:45.218Z,7.90
2018-10-18T04:59:19.320Z,7.90
2018-10-18T04:59:53.381Z,7.90
2018-10-18T05:00:28.134Z,7.90
2018-10-18T05:01:02.309Z,7.90
2018-10-18T05:01:36.937Z,7.90
2018-10-18T05:02:11.054Z,7.90
2018-10-18T05:02:45.220Z,7.90
2018-10-18T05:03:19.489Z,7.90
2018-10-18T05:03:53.923Z,7.90
2018-10-18T05:04:28.389Z,7.90
2018-10-18T05:05:14.183Z,7.90
2018-10-18T05:05:51.750Z,7.90
2018-10-18T05:06:25.842Z,7.90
2018-10-18T05:06:59.954Z,7.80
2018-10-18T05:07:34.216Z,7.80
2018-10-18T05:08:08.633Z,7.80
2018-10-18T05:08:42.716Z,7.80
2018-10-18T05:09:17.142Z,7.80
2018-10-18T05:09:51.234Z,7.80
2018-10-18T05:10:25.397Z,7.80
2018-10-18T05:10:59.481Z,7.80
2018-10-18T05:11:33.659Z,7.80
2018-10-18T05:12:08.070Z,7.80
2018-10-18T05:12:42.248Z,7.80
2018-10-18T05:13:17.038Z,7.80
2018-10-18T05:13:51.594Z,7.80
2018-10-18T05:14:25.670Z,7.80
2018-10-18T05:15:00.106Z,7.80
2018-10-18T05:15:34.217Z,7.80
2018-10-18T05:16:08.337Z,7.80
2018-10-18T05:16:42.457Z,7.80
2018-10-18T05:17:16.552Z,7.80
2018-10-18T05:17:50.979Z,7.80
2018-10-18T05:18:25.190Z,7.80
2018-10-18T05:18:59.770Z,7.80
2018-10-18T05:19:34.465Z,7.80
2018-10-18T05:20:08.537Z,7.80
2018-10-18T05:20:42.629Z,7.90
2018-10-18T05:21:17.057Z,7.90
2018-10-18T05:21:51.173Z,7.90
2018-10-18T05:22:25.279Z,7.90
2018-10-18T05:22:59.414Z,7.90
2018-10-18T05:23:33.853Z,7.90
2018-10-18T05:24:07.942Z,8.00
2018-10-18T05:24:42.082Z,8.00
2018-10-18T05:25:16.601Z,8.00
2018-10-18T05:25:51.656Z,8.00
2018-10-18T05:26:25.808Z,8.00
2018-10-18T05:26:59.868Z,8.10
2018-10-18T05:27:33.968Z,8.10
2018-10-18T05:28:08.725Z,8.10
2018-10-18T05:28:42.797Z,8.10
2018-10-18T05:29:16.894Z,8.10
2018-10-18T05:29:51.096Z,8.20
2018-10-18T05:30:25.530Z,8.20
2018-10-18T05:30:59.638Z,8.20
2018-10-18T05:31:34.667Z,8.20
2018-10-18T05:32:09.328Z,8.20
2018-10-18T05:32:43.437Z,8.30
2018-10-18T05:33:17.534Z,8.30
2018-10-18T05:33:51.609Z,8.30
2018-10-18T05:34:25.792Z,8.30
2018-10-18T05:35:00.015Z,8.30
2018-10-18T05:35:34.777Z,8.30
2018-10-18T05:36:09.174Z,8.40
2018-10-18T05:36:43.367Z,8.40
2018-10-18T05:37:17.926Z,8.40
2018-10-18T05:37:52.784Z,8.40
2018-10-18T05:38:27.366Z,8.40
2018-10-18T05:39:01.781Z,8.40
2018-10-18T05:39:35.878Z,8.50
2018-10-18T05:40:10.632Z,8.50
2018-10-18T05:40:45.213Z,8.50
2018-10-18T05:41:19.645Z,8.50
2018-10-18T05:41:53.782Z,8.50
2018-10-18T05:42:27.614Z,8.50
2018-10-18T05:43:01.773Z,8.50
2018-10-18T05:43:35.741Z,8.60
2018-10-18T05:44:09.846Z,8.50
2018-10-18T05:44:44.277Z,8.60
2018-10-18T05:45:18.716Z,8.60
2018-10-18T05:45:53.754Z,8.60
2018-10-18T05:46:28.545Z,8.60
2018-10-18T05:47:03.208Z,8.60
2018-10-18T05:47:37.346Z,8.60
2018-10-18T05:48:11.425Z,8.60
2018-10-18T05:48:45.524Z,8.60
2018-10-18T05:49:19.642Z,8.70
2018-10-18T05:49:54.292Z,8.60
2018-10-18T05:50:28.729Z,8.70
2018-10-18T05:51:02.820Z,8.70
2018-10-18T05:51:36.990Z,8.70
2018-10-18T05:52:11.108Z,8.70
2018-10-18T05:52:45.526Z,8.70
2018-10-18T05:53:20.095Z,8.80
2018-10-18T05:53:54.499Z,8.80
2018-10-18T05:54:28.630Z,8.80
2018-10-18T05:55:03.085Z,8.80
2018-10-18T05:55:37.692Z,8.80
2018-10-18T05:56:11.848Z,8.80
2018-10-18T05:56:46.266Z,8.80
2018-10-18T05:57:20.399Z,8.80
2018-10-18T05:57:54.230Z,8.90
2018-10-18T05:58:28.315Z,8.90
2018-10-18T05:59:02.754Z,8.90
2018-10-18T05:59:36.833Z,8.90
2018-10-18T06:00:15.359Z,8.90
2018-10-18T06:00:49.548Z,8.90
2018-10-18T06:01:24.108Z,8.90
2018-10-18T06:01:58.272Z,8.90
2018-10-18T06:02:32.736Z,8.90
2018-10-18T06:03:07.162Z,9.00
2018-10-18T06:03:41.297Z,9.00
2018-10-18T06:04:15.364Z,9.00
2018-10-18T06:04:49.795Z,9.00
2018-10-18T06:05:23.957Z,9.10
2018-10-18T06:05:59.192Z,9.10
2018-10-18T06:06:33.282Z,9.10
2018-10-18T06:07:07.442Z,9.10
2018-10-18T06:07:42.462Z,9.10
2018-10-18T06:08:16.548Z,9.10
2018-10-18T06:08:51.007Z,9.10
2018-10-18T06:09:29.429Z,9.10
2018-10-18T06:10:03.654Z,9.10
2018-10-18T06:10:49.392Z,9.20
2018-10-18T06:11:27.302Z,9.20
2018-10-18T06:12:01.800Z,9.20
2018-10-18T06:12:35.901Z,9.20
2018-10-18T06:13:10.087Z,9.20
2018-10-18T06:13:44.330Z,9.30
2018-10-18T06:14:18.764Z,9.20
2018-10-18T06:14:52.866Z,9.30
2018-10-18T06:15:27.630Z,9.30
2018-10-18T06:16:01.728Z,9.30
2018-10-18T06:16:35.786Z,9.30
2018-10-18T06:17:10.210Z,9.30
2018-10-18T06:17:44.312Z,9.30
2018-10-18T06:18:18.750Z,9.30
2018-10-18T06:18:53.212Z,9.40
2018-10-18T06:19:27.465Z,9.30
2018-10-18T06:20:01.551Z,9.40
2018-10-18T06:20:35.644Z,9.40
2018-10-18T06:21:09.723Z,9.40
2018-10-18T06:21:43.842Z,9.40
2018-10-18T06:22:17.994Z,9.40
2018-10-18T06:22:52.126Z,9.40
2018-10-18T06:23:26.475Z,9.50
2018-10-18T06:24:00.450Z,9.50
2018-10-18T06:24:34.550Z,9.50
2018-10-18T06:25:09.980Z,9.50
2018-10-18T06:25:44.856Z,9.50
2018-10-18T06:26:20.033Z,9.50
2018-10-18T06:26:54.335Z,9.50
2018-10-18T06:27:28.425Z,9.60
2018-10-18T06:28:03.195Z,9.60
2018-10-18T06:28:37.992Z,9.60
2018-10-18T06:29:12.479Z,9.70
2018-10-18T06:29:46.782Z,9.60
2018-10-18T06:30:20.866Z,9.60
2018-10-18T06:30:55.300Z,9.70
2018-10-18T06:31:29.587Z,9.70
2018-10-18T06:32:04.008Z,9.70
2018-10-18T06:32:38.112Z,9.70
2018-10-18T06:33:12.233Z,9.70
2018-10-18T06:33:46.722Z,9.70
2018-10-18T06:34:20.800Z,9.70
2018-10-18T06:34:54.929Z,9.80
2018-10-18T06:35:29.334Z,9.80
2018-10-18T06:36:03.502Z,9.80
2018-10-18T06:36:37.968Z,9.80
2018-10-18T06:37:12.207Z,9.80
2018-10-18T06:37:46.160Z,9.80
2018-10-18T06:38:20.257Z,9.80
2018-10-18T06:38:54.433Z,9.80
2018-10-18T06:39:28.561Z,9.90
2018-10-18T06:40:03.080Z,9.90
2018-10-18T06:40:37.578Z,9.90
2018-10-18T06:41:11.696Z,9.90
2018-10-18T06:41:46.412Z,9.90
2018-10-18T06:42:20.511Z,9.90
2018-10-18T06:42:54.410Z,10.00
2018-10-18T06:43:33.266Z,10.00
2018-10-18T06:44:07.436Z,10.00
2018-10-18T06:44:41.563Z,10.00
2018-10-18T06:45:17.305Z,10.00
2018-10-18T06:45:51.729Z,10.10
2018-10-18T06:46:25.812Z,10.10
2018-10-18T06:47:00.655Z,10.10
2018-10-18T06:47:34.724Z,10.10
2018-10-18T06:48:09.014Z,10.10
2018-10-18T06:48:43.364Z,10.10
2018-10-18T06:49:17.896Z,10.10
2018-10-18T06:49:52.130Z,10.10
2018-10-18T06:50:26.324Z,10.20
2018-10-18T06:51:00.141Z,10.20
2018-10-18T06:51:33.986Z,10.20
2018-10-18T06:52:07.820Z,10.20
2018-10-18T06:52:41.720Z,10.20
2018-10-18T06:53:15.589Z,10.20
2018-10-18T06:53:49.499Z,10.20
2018-10-18T06:54:23.811Z,10.20
2018-10-18T06:54:57.926Z,10.20
2018-10-18T06:55:32.213Z,10.30
2018-10-18T06:56:06.514Z,10.30
2018-10-18T06:56:40.604Z,10.30
2018-10-18T06:57:15.089Z,10.30
2018-10-18T06:57:49.258Z,10.30
2018-10-18T06:58:23.703Z,10.40
2018-10-18T06:58:58.522Z,10.40
2018-10-18T06:59:32.353Z,10.40
2018-10-18T07:00:08.724Z,10.40
2018-10-18T07:00:43.076Z,10.40
2018-10-18T07:01:16.896Z,10.50
2018-10-18T07:01:50.726Z,10.50
2018-10-18T07:02:24.581Z,10.50
2018-10-18T07:02:58.689Z,10.50
2018-10-18T07:03:32.504Z,10.60
2018-10-18T07:04:06.715Z,10.60
2018-10-18T07:04:40.816Z,10.60
2018-10-18T07:05:15.403Z,10.60
2018-10-18T07:05:49.533Z,10.60
2018-10-18T07:06:23.693Z,10.60
2018-10-18T07:06:58.004Z,10.60
2018-10-18T07:07:32.176Z,10.70
2018-10-18T07:08:06.277Z,10.70
2018-10-18T07:08:40.776Z,10.70
2018-10-18T07:09:14.621Z,10.70
2018-10-18T07:09:48.472Z,10.70
2018-10-18T07:10:22.609Z,10.80
2018-10-18T07:10:56.999Z,10.80
2018-10-18T07:11:31.273Z,10.80
2018-10-18T07:12:06.270Z,10.90
2018-10-18T07:12:40.932Z,10.90
2018-10-18T07:13:14.836Z,10.90
2018-10-18T07:13:48.714Z,10.90
2018-10-18T07:14:22.544Z,10.90
2018-10-18T07:14:56.436Z,10.90
2018-10-18T07:15:30.284Z,10.90
2018-10-18T07:16:04.566Z,11.00
2018-10-18T07:16:38.392Z,11.00
2018-10-18T07:17:12.201Z,11.00
2018-10-18T07:17:46.093Z,11.00
2018-10-18T07:18:20.118Z,11.00
2018-10-18T07:18:54.626Z,11.00
2018-10-18T07:19:28.497Z,11.00
2018-10-18T07:20:02.608Z,11.10
2018-10-18T07:20:36.423Z,11.10
2018-10-18T07:21:10.879Z,11.10
2018-10-18T07:21:44.882Z,11.10
2018-10-18T07:22:18.697Z,11.10
2018-10-18T07:22:52.524Z,11.10
2018-10-18T07:23:26.672Z,11.10
2018-10-18T07:24:00.602Z,11.10
2018-10-18T07:24:34.924Z,11.10
2018-10-18T07:25:11.882Z,11.10
2018-10-18T07:25:45.865Z,11.10
2018-10-18T07:26:20.646Z,11.10
2018-10-18T07:26:54.749Z,11.10
2018-10-18T07:27:28.583Z,11.10
2018-10-18T07:28:03.261Z,11.10
2018-10-18T07:28:37.077Z,11.10
2018-10-18T07:29:10.986Z,11.10
2018-10-18T07:29:45.149Z,11.10
2018-10-18T07:30:19.423Z,11.20
2018-10-18T07:30:53.932Z,11.20
2018-10-18T07:31:28.076Z,11.20
2018-10-18T07:32:01.900Z,11.20
2018-10-18T07:32:35.739Z,11.20
2018-10-18T07:33:09.621Z,11.20
2018-10-18T07:33:43.906Z,11.20
2018-10-18T07:34:17.764Z,11.30
2018-10-18T07:34:51.666Z,11.30
2018-10-18T07:35:25.646Z,11.30
2018-10-18T07:35:59.604Z,11.30
2018-10-18T07:36:33.578Z,11.30
2018-10-18T07:37:08.058Z,11.40
2018-10-18T07:37:42.223Z,11.40